sensor_id;sensor_type;location;lat;lon;timestamp;pressure;altitude;pressure_sealevel;temperature;humidity
74270;BME280;62754;48.252;11.654;2022-12-07T00:01:23;96103.19;;;2.43;83.82
74270;BME280;62754;48.252;11.654;2022-12-07T00:03:51;96093.94;;;2.59;83.08
74270;BME280;62754;48.252;11.654;2022-12-07T00:06:18;96096.97;;;2.31;83.99
74270;BME280;62754;48.252;11.654;2022-12-07T00:08:46;96093.59;;;2.48;83.70
74270;BME280;62754;48.252;11.654;2022-12-07T00:11:16;96102.59;;;2.37;83.83
74270;BME280;62754;48.252;11.654;2022-12-07T00:13:43;96091.97;;;2.29;84.12
74270;BME280;62754;48.252;11.654;2022-12-07T00:16:14;96093.63;;;2.30;84.79
74270;BME280;62754;48.252;11.654;2022-12-07T00:18:40;96097.56;;;2.36;83.72
74270;BME280;62754;48.252;11.654;2022-12-07T00:23:35;96095.63;;;2.24;84.56
74270;BME280;62754;48.252;11.654;2022-12-07T00:26:17;96074.06;;;2.14;84.37
74270;BME280;62754;48.252;11.654;2022-12-07T00:28:56;96085.69;;;2.54;83.63
74270;BME280;62754;48.252;11.654;2022-12-07T00:31:24;96093.47;;;2.33;83.96
74270;BME280;62754;48.252;11.654;2022-12-07T00:33:51;96092.16;;;2.25;84.69
74270;BME280;62754;48.252;11.654;2022-12-07T00:36:19;96083.81;;;2.23;84.52
74270;BME280;62754;48.252;11.654;2022-12-07T00:38:45;96082.16;;;2.22;84.54
74270;BME280;62754;48.252;11.654;2022-12-07T00:41:13;96087.41;;;2.36;84.26
74270;BME280;62754;48.252;11.654;2022-12-07T00:43:39;96088.44;;;2.32;84.27
74270;BME280;62754;48.252;11.654;2022-12-07T00:46:06;96089.84;;;2.20;84.30
74270;BME280;62754;48.252;11.654;2022-12-07T00:48:31;96080.69;;;2.35;84.30
74270;BME280;62754;48.252;11.654;2022-12-07T00:50:57;96091.75;;;2.51;83.29
74270;BME280;62754;48.252;11.654;2022-12-07T00:53:23;96092.09;;;2.26;84.41
74270;BME280;62754;48.252;11.654;2022-12-07T00:55:49;96087.44;;;2.17;84.46
74270;BME280;62754;48.252;11.654;2022-12-07T00:58:15;96081.06;;;2.27;84.37
74270;BME280;62754;48.252;11.654;2022-12-07T01:00:42;96083.50;;;2.12;84.96
74270;BME280;62754;48.252;11.654;2022-12-07T01:03:10;96086.97;;;2.09;85.28
74270;BME280;62754;48.252;11.654;2022-12-07T01:05:35;96086.63;;;2.17;84.73
74270;BME280;62754;48.252;11.654;2022-12-07T01:08:02;96083.81;;;2.23;84.94
74270;BME280;62754;48.252;11.654;2022-12-07T01:10:28;96084.75;;;2.20;84.61
74270;BME280;62754;48.252;11.654;2022-12-07T01:12:54;96090.88;;;2.16;85.13
74270;BME280;62754;48.252;11.654;2022-12-07T01:15:19;96083.59;;;2.27;84.71
74270;BME280;62754;48.252;11.654;2022-12-07T01:17:45;96087.50;;;2.34;84.61
74270;BME280;62754;48.252;11.654;2022-12-07T01:20:11;96089.47;;;2.28;84.67
74270;BME280;62754;48.252;11.654;2022-12-07T01:22:39;96084.13;;;2.34;84.74
74270;BME280;62754;48.252;11.654;2022-12-07T01:25:06;96083.59;;;2.27;84.77
74270;BME280;62754;48.252;11.654;2022-12-07T01:27:33;96089.72;;;2.23;84.76
74270;BME280;62754;48.252;11.654;2022-12-07T01:29:59;96086.81;;;2.31;84.78
74270;BME280;62754;48.252;11.654;2022-12-07T01:32:26;96093.81;;;2.26;84.59
74270;BME280;62754;48.252;11.654;2022-12-07T01:34:52;96093.69;;;2.29;84.21
74270;BME280;62754;48.252;11.654;2022-12-07T01:37:18;96089.25;;;2.32;84.39
74270;BME280;62754;48.252;11.654;2022-12-07T01:39:44;96086.50;;;2.37;84.04
74270;BME280;62754;48.252;11.654;2022-12-07T01:42:11;96078.31;;;2.13;84.39
74270;BME280;62754;48.252;11.654;2022-12-07T01:47:21;96081.50;;;2.35;84.56
74270;BME280;62754;48.252;11.654;2022-12-07T01:49:48;96092.09;;;2.44;83.60
74270;BME280;62754;48.252;11.654;2022-12-07T01:52:20;96078.72;;;2.40;84.10
74270;BME280;62754;48.252;11.654;2022-12-07T01:54:51;96085.16;;;2.30;84.24
74270;BME280;62754;48.252;11.654;2022-12-07T01:57:18;96090.25;;;2.30;84.01
74270;BME280;62754;48.252;11.654;2022-12-07T01:59:45;96089.41;;;2.12;84.80
74270;BME280;62754;48.252;11.654;2022-12-07T02:02:23;96085.13;;;2.13;85.49
74270;BME280;62754;48.252;11.654;2022-12-07T02:04:52;96081.47;;;2.18;84.61
74270;BME280;62754;48.252;11.654;2022-12-07T02:07:20;96078.53;;;2.09;85.27
74270;BME280;62754;48.252;11.654;2022-12-07T02:09:46;96078.41;;;2.29;84.58
74270;BME280;62754;48.252;11.654;2022-12-07T02:12:11;96074.31;;;2.26;84.39
74270;BME280;62754;48.252;11.654;2022-12-07T02:14:37;96071.63;;;2.29;83.94
74270;BME280;62754;48.252;11.654;2022-12-07T02:20:03;96060.63;;;2.12;84.74
74270;BME280;62754;48.252;11.654;2022-12-07T02:30:48;96060.78;;;2.26;84.35
74270;BME280;62754;48.252;11.654;2022-12-07T02:33:19;96064.81;;;2.30;83.93
74270;BME280;62754;48.252;11.654;2022-12-07T02:35:55;96065.03;;;2.25;84.38
74270;BME280;62754;48.252;11.654;2022-12-07T02:38:31;96065.56;;;2.32;84.41
74270;BME280;62754;48.252;11.654;2022-12-07T02:41:07;96068.00;;;2.16;84.61
74270;BME280;62754;48.252;11.654;2022-12-07T02:43:41;96060.78;;;2.26;83.90
74270;BME280;62754;48.252;11.654;2022-12-07T02:46:13;96069.84;;;2.31;84.17
74270;BME280;62754;48.252;11.654;2022-12-07T02:48:41;96060.34;;;2.35;83.93
74270;BME280;62754;48.252;11.654;2022-12-07T02:51:08;96067.50;;;2.44;83.43
74270;BME280;62754;48.252;11.654;2022-12-07T02:53:43;96061.19;;;2.35;83.10
74270;BME280;62754;48.252;11.654;2022-12-07T02:59:11;96071.09;;;2.23;84.04
74270;BME280;62754;48.252;11.654;2022-12-07T03:04:42;96057.44;;;2.43;82.73
74270;BME280;62754;48.252;11.654;2022-12-07T03:13:03;96057.34;;;2.27;83.29
74270;BME280;62754;48.252;11.654;2022-12-07T03:17:59;96057.34;;;2.27;84.08
74270;BME280;62754;48.252;11.654;2022-12-07T03:20:29;96053.00;;;2.29;83.79
74270;BME280;62754;48.252;11.654;2022-12-07T03:22:56;96057.34;;;2.27;84.15
74270;BME280;62754;48.252;11.654;2022-12-07T03:25:23;96060.84;;;2.24;83.80
74270;BME280;62754;48.252;11.654;2022-12-07T03:27:54;96060.78;;;2.26;84.33
74270;BME280;62754;48.252;11.654;2022-12-07T03:30:24;96048.13;;;2.24;83.86
74270;BME280;62754;48.252;11.654;2022-12-07T03:33:09;96044.94;;;2.38;83.37
74270;BME280;62754;48.252;11.654;2022-12-07T03:35:47;96051.34;;;2.28;83.83
74270;BME280;62754;48.252;11.654;2022-12-07T03:41:33;96045.38;;;2.29;83.74
74270;BME280;62754;48.252;11.654;2022-12-07T03:44:00;96051.28;;;2.29;83.97
74270;BME280;62754;48.252;11.654;2022-12-07T03:46:44;96045.69;;;2.23;84.20
74270;BME280;62754;48.252;11.654;2022-12-07T03:49:18;96050.25;;;2.33;83.84
74270;BME280;62754;48.252;11.654;2022-12-07T03:52:00;96047.75;;;2.32;84.37
74270;BME280;62754;48.252;11.654;2022-12-07T03:54:33;96050.31;;;2.32;84.49
74270;BME280;62754;48.252;11.654;2022-12-07T03:57:02;96046.97;;;2.31;84.38
74270;BME280;62754;48.252;11.654;2022-12-07T03:59:28;96036.72;;;2.16;85.23
74270;BME280;62754;48.252;11.654;2022-12-07T04:01:58;96035.28;;;2.10;85.60
74270;BME280;62754;48.252;11.654;2022-12-07T04:04:26;96028.78;;;2.22;85.53
74270;BME280;62754;48.252;11.654;2022-12-07T04:06:52;96037.28;;;2.21;85.41
74270;BME280;62754;48.252;11.654;2022-12-07T04:09:18;96041.56;;;2.20;85.70
74270;BME280;62754;48.252;11.654;2022-12-07T04:11:44;96042.19;;;2.43;85.32
74270;BME280;62754;48.252;11.654;2022-12-07T04:14:10;96039.75;;;2.39;85.38
74270;BME280;62754;48.252;11.654;2022-12-07T04:16:35;96040.44;;;2.26;85.91
74270;BME280;62754;48.252;11.654;2022-12-07T04:19:01;96047.91;;;2.29;86.09
74270;BME280;62754;48.252;11.654;2022-12-07T04:21:27;96050.63;;;2.26;86.04
74270;BME280;62754;48.252;11.654;2022-12-07T04:23:53;96049.06;;;2.23;86.33
74270;BME280;62754;48.252;11.654;2022-12-07T04:26:18;96046.63;;;2.20;86.81
74270;BME280;62754;48.252;11.654;2022-12-07T04:28:44;96046.25;;;2.28;86.60
74270;BME280;62754;48.252;11.654;2022-12-07T04:31:10;96045.75;;;2.21;86.66
74270;BME280;62754;48.252;11.654;2022-12-07T04:33:36;96040.38;;;2.45;86.09
74270;BME280;62754;48.252;11.654;2022-12-07T04:36:02;96050.47;;;2.29;86.20
74270;BME280;62754;48.252;11.654;2022-12-07T04:38:27;96044.94;;;2.38;86.40
74270;BME280;62754;48.252;11.654;2022-12-07T04:40:53;96041.56;;;2.37;86.33
74270;BME280;62754;48.252;11.654;2022-12-07T04:43:19;96034.84;;;2.19;87.09
74270;BME280;62754;48.252;11.654;2022-12-07T04:45:46;96034.75;;;2.04;87.21
74270;BME280;62754;48.252;11.654;2022-12-07T04:48:12;96031.22;;;2.06;87.85
74270;BME280;62754;48.252;11.654;2022-12-07T04:50:38;96037.66;;;1.96;88.53
74270;BME280;62754;48.252;11.654;2022-12-07T04:53:03;96035.50;;;2.06;88.17
74270;BME280;62754;48.252;11.654;2022-12-07T04:55:29;96029.06;;;1.99;88.25
74270;BME280;62754;48.252;11.654;2022-12-07T04:57:55;96023.34;;;2.12;87.26
74270;BME280;62754;48.252;11.654;2022-12-07T05:00:21;96032.06;;;2.07;87.83
74270;BME280;62754;48.252;11.654;2022-12-07T05:02:46;96039.47;;;2.28;86.76
74270;BME280;62754;48.252;11.654;2022-12-07T05:05:12;96038.66;;;2.11;87.20
74270;BME280;62754;48.252;11.654;2022-12-07T05:07:38;96042.84;;;2.12;87.69
74270;BME280;62754;48.252;11.654;2022-12-07T05:10:05;96046.09;;;1.97;88.41
74270;BME280;62754;48.252;11.654;2022-12-07T05:12:31;96040.88;;;2.00;87.94
74270;BME280;62754;48.252;11.654;2022-12-07T05:14:56;96035.44;;;2.07;87.10
74270;BME280;62754;48.252;11.654;2022-12-07T05:17:22;96037.28;;;2.21;86.71
74270;BME280;62754;48.252;11.654;2022-12-07T05:19:48;96042.25;;;2.24;86.68
74270;BME280;62754;48.252;11.654;2022-12-07T05:22:13;96041.81;;;2.16;86.87
74270;BME280;62754;48.252;11.654;2022-12-07T05:24:39;96042.16;;;2.08;87.66
74270;BME280;62754;48.252;11.654;2022-12-07T05:27:05;96038.66;;;2.11;87.47
74270;BME280;62754;48.252;11.654;2022-12-07T05:29:31;96045.63;;;1.88;87.68
74270;BME280;62754;48.252;11.654;2022-12-07T05:31:56;96034.16;;;1.99;87.64
74270;BME280;62754;48.252;11.654;2022-12-07T05:34:22;96039.00;;;2.03;86.85
74270;BME280;62754;48.252;11.654;2022-12-07T05:36:48;96042.16;;;2.25;86.11
74270;BME280;62754;48.252;11.654;2022-12-07T05:39:14;96038.03;;;2.06;86.66
74270;BME280;62754;48.252;11.654;2022-12-07T05:41:39;96037.75;;;2.12;86.99
74270;BME280;62754;48.252;11.654;2022-12-07T05:44:05;96028.16;;;2.00;87.66
74270;BME280;62754;48.252;11.654;2022-12-07T05:46:31;96041.13;;;2.12;86.94
74270;BME280;62754;48.252;11.654;2022-12-07T05:48:57;96036.63;;;2.00;87.59
74270;BME280;62754;48.252;11.654;2022-12-07T05:51:23;96037.16;;;2.07;87.33
74270;BME280;62754;48.252;11.654;2022-12-07T05:53:49;96033.03;;;2.04;87.31
74270;BME280;62754;48.252;11.654;2022-12-07T05:56:15;96041.63;;;2.02;87.35
74270;BME280;62754;48.252;11.654;2022-12-07T05:58:41;96038.34;;;2.17;87.08
74270;BME280;62754;48.252;11.654;2022-12-07T06:01:07;96036.84;;;2.13;86.78
74270;BME280;62754;48.252;11.654;2022-12-07T06:03:32;96035.06;;;2.15;86.49
74270;BME280;62754;48.252;11.654;2022-12-07T06:05:58;96038.34;;;2.00;87.21
74270;BME280;62754;48.252;11.654;2022-12-07T06:08:24;96041.16;;;1.93;87.35
74270;BME280;62754;48.252;11.654;2022-12-07T06:10:50;96047.00;;;1.96;87.23
74270;BME280;62754;48.252;11.654;2022-12-07T06:13:15;96036.84;;;2.13;86.93
74270;BME280;62754;48.252;11.654;2022-12-07T06:15:41;96045.59;;;2.07;86.85
74270;BME280;62754;48.252;11.654;2022-12-07T06:18:07;96049.63;;;2.11;86.16
74270;BME280;62754;48.252;11.654;2022-12-07T06:20:32;96048.50;;;2.00;86.77
74270;BME280;62754;48.252;11.654;2022-12-07T06:22:58;96045.44;;;1.93;87.17
74270;BME280;62754;48.252;11.654;2022-12-07T06:25:24;96048.50;;;2.00;87.08
74270;BME280;62754;48.252;11.654;2022-12-07T06:27:50;96048.34;;;2.03;86.97
74270;BME280;62754;48.252;11.654;2022-12-07T06:30:16;96049.31;;;2.00;87.36
74270;BME280;62754;48.252;11.654;2022-12-07T06:32:41;96047.63;;;2.01;87.74
74270;BME280;62754;48.252;11.654;2022-12-07T06:35:07;96051.88;;;2.17;86.73
74270;BME280;62754;48.252;11.654;2022-12-07T06:37:33;96051.78;;;2.02;86.97
74270;BME280;62754;48.252;11.654;2022-12-07T06:39:59;96049.13;;;2.05;86.48
74270;BME280;62754;48.252;11.654;2022-12-07T06:42:24;96059.69;;;1.96;87.07
74270;BME280;62754;48.252;11.654;2022-12-07T06:44:50;96059.75;;;1.94;87.50
74270;BME280;62754;48.252;11.654;2022-12-07T06:47:16;96053.25;;;1.88;87.33
74270;BME280;62754;48.252;11.654;2022-12-07T06:49:42;96060.00;;;2.07;86.66
74270;BME280;62754;48.252;11.654;2022-12-07T06:52:08;96060.63;;;2.12;86.69
74270;BME280;62754;48.252;11.654;2022-12-07T06:54:33;96060.53;;;1.96;86.87
74270;BME280;62754;48.252;11.654;2022-12-07T06:56:59;96059.13;;;2.08;86.67
74270;BME280;62754;48.252;11.654;2022-12-07T06:59:25;96061.25;;;1.98;86.92
74270;BME280;62754;48.252;11.654;2022-12-07T07:01:50;96063.47;;;1.87;87.33
74270;BME280;62754;48.252;11.654;2022-12-07T07:04:16;96059.41;;;1.66;88.20
74270;BME280;62754;48.252;11.654;2022-12-07T07:06:42;96058.69;;;1.81;88.03
74270;BME280;62754;48.252;11.654;2022-12-07T07:09:08;96064.94;;;1.92;87.28
74270;BME280;62754;48.252;11.654;2022-12-07T07:11:33;96065.81;;;1.91;87.24
74270;BME280;62754;48.252;11.654;2022-12-07T07:13:59;96068.06;;;1.98;86.73
74270;BME280;62754;48.252;11.654;2022-12-07T07:16:25;96068.16;;;2.13;86.13
74270;BME280;62754;48.252;11.654;2022-12-07T07:18:51;96066.28;;;2.00;87.04
74270;BME280;62754;48.252;11.654;2022-12-07T07:21:16;96061.72;;;1.89;86.97
74270;BME280;62754;48.252;11.654;2022-12-07T07:23:42;96064.34;;;2.05;86.01
74270;BME280;62754;48.252;11.654;2022-12-07T07:26:08;96057.38;;;1.91;86.37
74270;BME280;62754;48.252;11.654;2022-12-07T07:28:34;96062.38;;;1.92;86.03
74270;BME280;62754;48.252;11.654;2022-12-07T07:30:59;96065.47;;;1.99;86.51
74270;BME280;62754;48.252;11.654;2022-12-07T07:33:25;96067.47;;;2.10;86.28
74270;BME280;62754;48.252;11.654;2022-12-07T07:35:51;96061.44;;;2.12;85.55
74270;BME280;62754;48.252;11.654;2022-12-07T07:38:17;96074.06;;;2.14;85.81
74270;BME280;62754;48.252;11.654;2022-12-07T07:40:42;96073.19;;;2.15;85.35
74270;BME280;62754;48.252;11.654;2022-12-07T07:43:08;96068.16;;;2.13;85.60
74270;BME280;62754;48.252;11.654;2022-12-07T07:45:34;96069.97;;;2.11;85.40
74270;BME280;62754;48.252;11.654;2022-12-07T07:48:00;96072.88;;;2.04;86.76
74270;BME280;62754;48.252;11.654;2022-12-07T07:50:25;96075.16;;;2.27;85.66
74270;BME280;62754;48.252;11.654;2022-12-07T07:52:51;96067.06;;;2.36;85.19
74270;BME280;62754;48.252;11.654;2022-12-07T07:55:17;96068.41;;;2.26;84.83
74270;BME280;62754;48.252;11.654;2022-12-07T07:57:43;96068.88;;;2.34;84.12
74270;BME280;62754;48.252;11.654;2022-12-07T08:00:13;96069.44;;;2.22;84.24
74270;BME280;62754;48.252;11.654;2022-12-07T08:02:40;96067.53;;;2.27;84.01
74270;BME280;62754;48.252;11.654;2022-12-07T08:05:07;96062.19;;;2.14;84.49
74270;BME280;62754;48.252;11.654;2022-12-07T08:07:32;96067.38;;;2.47;83.48
74270;BME280;62754;48.252;11.654;2022-12-07T08:09:58;96076.66;;;2.31;83.84
74270;BME280;62754;48.252;11.654;2022-12-07T08:12:24;96074.16;;;2.29;84.20
74270;BME280;62754;48.252;11.654;2022-12-07T08:14:50;96078.41;;;2.29;84.21
74270;BME280;62754;48.252;11.654;2022-12-07T08:17:15;96064.38;;;2.39;83.55
74270;BME280;62754;48.252;11.654;2022-12-07T08:19:41;96073.00;;;2.54;82.55
74270;BME280;62754;48.252;11.654;2022-12-07T08:22:07;96082.94;;;2.58;82.87
74270;BME280;62754;48.252;11.654;2022-12-07T08:24:34;96078.97;;;2.53;82.33
74270;BME280;62754;48.252;11.654;2022-12-07T08:27:00;96083.63;;;2.62;81.82
74270;BME280;62754;48.252;11.654;2022-12-07T08:29:26;96087.56;;;2.67;81.81
74270;BME280;62754;48.252;11.654;2022-12-07T08:31:51;96084.13;;;2.85;79.72
74270;BME280;62754;48.252;11.654;2022-12-07T08:34:17;96094.50;;;2.98;79.80
74270;BME280;62754;48.252;11.654;2022-12-07T08:36:43;96091.59;;;2.88;79.93
74270;BME280;62754;48.252;11.654;2022-12-07T08:39:09;96091.94;;;2.98;79.36
74270;BME280;62754;48.252;11.654;2022-12-07T08:41:34;96090.47;;;2.94;78.42
74270;BME280;62754;48.252;11.654;2022-12-07T08:44:00;96084.69;;;2.91;79.10
74270;BME280;62754;48.252;11.654;2022-12-07T08:46:32;96092.88;;;2.97;78.38
74270;BME280;62754;48.252;11.654;2022-12-07T08:49:11;96089.38;;;3.15;78.45
74270;BME280;62754;48.252;11.654;2022-12-07T08:51:38;96094.38;;;3.01;79.59
74270;BME280;62754;48.252;11.654;2022-12-07T08:54:07;96091.13;;;2.98;79.49
74270;BME280;62754;48.252;11.654;2022-12-07T08:56:34;96095.03;;;3.05;80.09
74270;BME280;62754;48.252;11.654;2022-12-07T08:59:01;96101.22;;;3.16;79.38
74270;BME280;62754;48.252;11.654;2022-12-07T09:01:26;96097.53;;;3.22;79.26
74270;BME280;62754;48.252;11.654;2022-12-07T09:03:53;96093.03;;;3.27;78.81
74270;BME280;62754;48.252;11.654;2022-12-07T09:06:19;96098.03;;;3.28;78.53
74270;BME280;62754;48.252;11.654;2022-12-07T09:08:47;96096.47;;;3.26;77.12
74270;BME280;62754;48.252;11.654;2022-12-07T09:11:14;96101.78;;;3.54;76.36
74270;BME280;62754;48.252;11.654;2022-12-07T09:13:40;96091.19;;;3.46;76.46
74270;BME280;62754;48.252;11.654;2022-12-07T09:16:06;96102.91;;;3.49;76.19
74270;BME280;62754;48.252;11.654;2022-12-07T09:18:31;96086.09;;;3.46;77.40
74270;BME280;62754;48.252;11.654;2022-12-07T09:20:57;96091.38;;;3.59;76.52
74270;BME280;62754;48.252;11.654;2022-12-07T09:23:23;96090.03;;;3.67;75.53
74270;BME280;62754;48.252;11.654;2022-12-07T09:25:49;96091.44;;;3.57;74.83
74270;BME280;62754;48.252;11.654;2022-12-07T09:28:15;96098.19;;;3.74;74.43
74270;BME280;62754;48.252;11.654;2022-12-07T09:30:48;96091.63;;;3.86;74.54
74270;BME280;62754;48.252;11.654;2022-12-07T09:33:14;96093.94;;;3.74;73.92
74270;BME280;62754;48.252;11.654;2022-12-07T09:35:49;96093.81;;;4.07;73.85
74270;BME280;62754;48.252;11.654;2022-12-07T09:38:17;96088.97;;;3.87;73.25
74270;BME280;62754;48.252;11.654;2022-12-07T09:40:43;96085.34;;;3.75;73.45
74270;BME280;62754;48.252;11.654;2022-12-07T09:43:28;96083.00;;;3.88;73.70
74270;BME280;62754;48.252;11.654;2022-12-07T09:45:55;96088.72;;;3.92;73.50
74270;BME280;62754;48.252;11.654;2022-12-07T09:48:34;96084.06;;;3.84;73.49
74270;BME280;62754;48.252;11.654;2022-12-07T09:51:00;96082.75;;;3.77;74.19
74270;BME280;62754;48.252;11.654;2022-12-07T09:53:28;96079.59;;;4.03;72.33
74270;BME280;62754;48.252;11.654;2022-12-07T09:55:56;96072.84;;;4.02;71.51
74270;BME280;62754;48.252;11.654;2022-12-07T09:58:26;96070.63;;;4.12;71.69
74270;BME280;62754;48.252;11.654;2022-12-07T10:01:00;96067.31;;;4.25;71.78
74270;BME280;62754;48.252;11.654;2022-12-07T10:03:27;96069.63;;;4.30;72.74
74270;BME280;62754;48.252;11.654;2022-12-07T10:05:54;96067.53;;;4.37;72.06
74270;BME280;62754;48.252;11.654;2022-12-07T10:08:20;96067.63;;;4.35;70.87
74270;BME280;62754;48.252;11.654;2022-12-07T10:10:53;96066.94;;;4.47;71.78
74270;BME280;62754;48.252;11.654;2022-12-07T10:13:22;96064.13;;;4.22;70.80
74270;BME280;62754;48.252;11.654;2022-12-07T10:15:49;96063.09;;;4.40;70.08
74270;BME280;62754;48.252;11.654;2022-12-07T10:18:31;96060.13;;;4.48;71.44
74270;BME280;62754;48.252;11.654;2022-12-07T10:21:03;96059.63;;;4.41;69.16
74270;BME280;62754;48.252;11.654;2022-12-07T10:23:29;96062.72;;;4.62;69.95
74270;BME280;62754;48.252;11.654;2022-12-07T10:25:55;96069.38;;;4.35;68.80
74270;BME280;62754;48.252;11.654;2022-12-07T10:28:21;96060.78;;;4.65;67.53
74270;BME280;62754;48.252;11.654;2022-12-07T10:33:34;96063.69;;;4.29;67.36
74270;BME280;62754;48.252;11.654;2022-12-07T10:36:25;96056.00;;;4.15;68.54
74270;BME280;62754;48.252;11.654;2022-12-07T10:39:11;96059.81;;;4.38;68.11
74270;BME280;62754;48.252;11.654;2022-12-07T10:41:57;96052.09;;;4.40;67.22
74270;BME280;62754;48.252;11.654;2022-12-07T10:44:28;96050.75;;;4.32;67.90
74270;BME280;62754;48.252;11.654;2022-12-07T10:47:21;96039.31;;;4.69;66.45
74270;BME280;62754;48.252;11.654;2022-12-07T10:49:57;96041.91;;;4.54;66.78
74270;BME280;62754;48.252;11.654;2022-12-07T10:52:45;96042.47;;;4.59;68.46
74270;BME280;62754;48.252;11.654;2022-12-07T10:55:19;96040.06;;;4.56;65.72
74270;BME280;62754;48.252;11.654;2022-12-07T11:00:39;96034.44;;;4.51;66.72
74270;BME280;62754;48.252;11.654;2022-12-07T11:05:52;96030.31;;;5.35;64.44
74270;BME280;62754;48.252;11.654;2022-12-07T11:11:18;96030.09;;;6.46;59.99
74270;BME280;62754;48.252;11.654;2022-12-07T11:14:18;96017.59;;;6.42;60.08
74270;BME280;62754;48.252;11.654;2022-12-07T11:17:11;96030.50;;;6.53;58.04
74270;BME280;62754;48.252;11.654;2022-12-07T11:27:46;96012.38;;;8.04;55.75
74270;BME280;62754;48.252;11.654;2022-12-07T11:35:28;96007.31;;;7.68;51.98
74270;BME280;62754;48.252;11.654;2022-12-07T11:38:03;96003.28;;;7.28;52.47
74270;BME280;62754;48.252;11.654;2022-12-07T11:40:35;96002.19;;;7.55;52.75
74270;BME280;62754;48.252;11.654;2022-12-07T11:43:09;96001.41;;;7.42;53.27
74270;BME280;62754;48.252;11.654;2022-12-07T11:45:44;96002.38;;;6.65;55.70
74270;BME280;62754;48.252;11.654;2022-12-07T11:48:27;96000.84;;;6.63;57.05
74270;BME280;62754;48.252;11.654;2022-12-07T11:50:56;95988.34;;;6.84;56.19
74270;BME280;62754;48.252;11.654;2022-12-07T11:53:31;95989.16;;;6.59;56.46
74270;BME280;62754;48.252;11.654;2022-12-07T11:56:08;95987.00;;;6.01;58.24
74270;BME280;62754;48.252;11.654;2022-12-07T12:03:37;95984.56;;;6.12;59.55
74270;BME280;62754;48.252;11.654;2022-12-07T12:06:05;95978.53;;;6.52;59.01
74270;BME280;62754;48.252;11.654;2022-12-07T12:08:35;95977.28;;;6.58;58.41
74270;BME280;62754;48.252;11.654;2022-12-07T12:11:27;95976.69;;;6.67;57.86
74270;BME280;62754;48.252;11.654;2022-12-07T12:17:00;95965.81;;;5.99;60.74
74270;BME280;62754;48.252;11.654;2022-12-07T12:22:17;95960.31;;;6.05;60.85
74270;BME280;62754;48.252;11.654;2022-12-07T12:24:46;95963.44;;;6.35;59.97
74270;BME280;62754;48.252;11.654;2022-12-07T12:27:27;95963.56;;;6.46;60.69
74270;BME280;62754;48.252;11.654;2022-12-07T12:29:56;95961.41;;;5.74;61.27
74270;BME280;62754;48.252;11.654;2022-12-07T12:32:43;95954.53;;;6.91;60.00
74270;BME280;62754;48.252;11.654;2022-12-07T12:37:52;95952.94;;;7.63;56.59
74270;BME280;62754;48.252;11.654;2022-12-07T12:42:52;95953.06;;;7.85;55.22
74270;BME280;62754;48.252;11.654;2022-12-07T12:45:23;95945.06;;;7.53;54.21
74270;BME280;62754;48.252;11.654;2022-12-07T12:48:02;95950.53;;;7.12;56.72
74270;BME280;62754;48.252;11.654;2022-12-07T12:53:16;95957.81;;;6.81;57.91
74270;BME280;62754;48.252;11.654;2022-12-07T12:58:32;95941.03;;;6.89;58.13
74270;BME280;62754;48.252;11.654;2022-12-07T13:04:02;95941.34;;;6.47;57.44
74270;BME280;62754;48.252;11.654;2022-12-07T13:08:56;95943.59;;;5.72;60.98
74270;BME280;62754;48.252;11.654;2022-12-07T13:17:02;95936.47;;;5.78;62.19
74270;BME280;62754;48.252;11.654;2022-12-07T13:22:34;95932.88;;;5.67;62.56
74270;BME280;62754;48.252;11.654;2022-12-07T13:25:09;95930.94;;;5.44;63.90
74270;BME280;62754;48.252;11.654;2022-12-07T13:27:41;95934.41;;;5.29;64.88
74270;BME280;62754;48.252;11.654;2022-12-07T13:30:20;95931.72;;;5.18;64.69
74270;BME280;62754;48.252;11.654;2022-12-07T13:32:57;95925.59;;;5.20;65.17
74270;BME280;62754;48.252;11.654;2022-12-07T13:35:35;95933.47;;;5.17;65.76
74270;BME280;62754;48.252;11.654;2022-12-07T13:38:02;95930.28;;;5.00;65.85
74270;BME280;62754;48.252;11.654;2022-12-07T13:40:29;95923.75;;;4.82;67.11
74270;BME280;62754;48.252;11.654;2022-12-07T13:43:00;95932.00;;;5.13;67.75
74270;BME280;62754;48.252;11.654;2022-12-07T13:45:30;95928.72;;;4.83;66.76
74270;BME280;62754;48.252;11.654;2022-12-07T13:47:57;95929.56;;;4.84;67.18
74270;BME280;62754;48.252;11.654;2022-12-07T13:50:30;95929.72;;;5.09;66.72
74270;BME280;62754;48.252;11.654;2022-12-07T13:52:58;95935.19;;;5.17;66.36
74270;BME280;62754;48.252;11.654;2022-12-07T13:55:24;95922.59;;;5.14;65.47
74270;BME280;62754;48.252;11.654;2022-12-07T13:57:52;95922.44;;;5.17;66.20
74270;BME280;62754;48.252;11.654;2022-12-07T14:00:20;95916.03;;;5.10;66.59
74270;BME280;62754;48.252;11.654;2022-12-07T14:03:01;95919.00;;;5.31;65.73
74270;BME280;62754;48.252;11.654;2022-12-07T14:05:34;95916.03;;;5.24;66.28
74270;BME280;62754;48.252;11.654;2022-12-07T14:08:03;95923.53;;;5.13;66.17
74270;BME280;62754;48.252;11.654;2022-12-07T14:10:33;95917.16;;;5.47;66.36
74270;BME280;62754;48.252;11.654;2022-12-07T14:13:00;95907.41;;;5.93;64.45
74270;BME280;62754;48.252;11.654;2022-12-07T14:15:29;95912.50;;;5.93;63.95
74270;BME280;62754;48.252;11.654;2022-12-07T14:17:57;95910.00;;;5.79;64.25
74270;BME280;62754;48.252;11.654;2022-12-07T14:22:55;95911.81;;;5.91;64.18
74270;BME280;62754;48.252;11.654;2022-12-07T14:25:23;95909.59;;;5.85;63.69
74270;BME280;62754;48.252;11.654;2022-12-07T14:27:55;95911.41;;;5.97;63.88
74270;BME280;62754;48.252;11.654;2022-12-07T14:30:22;95906.91;;;6.00;63.05
74270;BME280;62754;48.252;11.654;2022-12-07T14:32:52;95919.97;;;5.69;64.71
74270;BME280;62754;48.252;11.654;2022-12-07T14:35:19;95916.66;;;5.54;65.15
74270;BME280;62754;48.252;11.654;2022-12-07T14:37:48;95918.34;;;5.41;65.67
74270;BME280;62754;48.252;11.654;2022-12-07T14:40:22;95917.47;;;5.14;66.65
74270;BME280;62754;48.252;11.654;2022-12-07T14:42:51;95916.69;;;4.99;66.92
74270;BME280;62754;48.252;11.654;2022-12-07T14:45:22;95917.72;;;4.83;67.47